Argonne, Wisconsin
Current Conditions -  °F | °C
As of 10:55 PM on Monday 20 Oct 2014 (Local Time) from KEGV Reporting Station
Overcast Overcast  
Wind Chill: 34°   Ceiling: 2200
Heat Index: 39°   Visibility: 10mi
Dew Point: 38°   Wind: 7mph
Humidity: 94%   Direction: 10°N
Pressure: 30.07"   Gusts: NA
Location:  45.66°N, 88.88°W
Report Text: KEGV 210355Z AUTO 01006KT 10SM SCT012 OVC022 04/03 A3007 RMK AO2 T00410032
Loading
Personal Weather Stations






























Interactive Weather Map New forecast layout! Learn more

10-Day Weather Forecast

Advertisements
Track Severe Weather on mobile